This is the latest recevied weather packets stored in our database for station/object XQ6AK-15. If no packets are shown the sender has not sent any weather packets the latest 10 day(s).
| Time | Temp. | Humidity | Pressure | Rain* | Wind** | Luminosity | Snow |
|---|---|---|---|---|---|---|---|
| 1777661596 | 12.78° C | 68% | 1022.3 hPa | 0 mm | - | 141 W/m² | - |
| 1777661292 | 12.78° C | 65% | 1022.3 hPa | 0 mm | - | 114 W/m² | - |
| 1777660988 | 12.78° C | 74% | 1022.2 hPa | 0 mm | - | 108 W/m² | - |
| 1777660684 | 12.78° C | 71% | 1022.3 hPa | 0 mm | - | 103 W/m² | - |
| 1777660381 | 12.78° C | 67% | 1022.4 hPa | 0 mm | - | 72 W/m² | - |
| 1777660077 | 13.33° C | 64% | 1022.4 hPa | 0 mm | - | 98 W/m² | - |
| 1777659774 | 13.89° C | 61% | 1022.3 hPa | 0 mm | - | 154 W/m² | - |
| 1777659471 | 13.89° C | 62% | 1022.3 hPa | 0 mm | - | 303 W/m² | - |
| 1777659168 | 13.33° C | 66% | 1022.1 hPa | 0 mm | - | 258 W/m² | - |
| 1777658866 | 14.44° C | 67% | 1022.1 hPa | 0 mm | - | 185 W/m² | - |
| 1777658562 | 15° C | 63% | 1022.3 hPa | 0 mm | - | 464 W/m² | - |
| 1777658258 | 14.44° C | 68% | 1022.1 hPa | 0 mm | - | 360 W/m² | - |
| 1777657956 | 14.44° C | 64% | 1022 hPa | 0 mm | - | 437 W/m² | - |
| 1777657652 | 13.89° C | 70% | 1022 hPa | 0 mm | - | 427 W/m² | - |
| 1777657349 | 12.22° C | 75% | 1022.1 hPa | 0 mm | - | 403 W/m² | - |
| 1777657047 | 13.33° C | 72% | 1022 hPa | 0 mm | - | 87 W/m² | - |
| 1777656744 | 13.89° C | 71% | 1022.1 hPa | 0 mm | - | 140 W/m² | - |
| 1777656440 | 13.89° C | 69% | 1021.9 hPa | 0 mm | - | 432 W/m² | - |
| 1777656135 | 13.89° C | 69% | 1022 hPa | 0 mm | - | 539 W/m² | - |
| 1777655832 | 15° C | 62% | 1022 hPa | 0 mm | - | 237 W/m² | - |
| 1777655529 | 13.89° C | 64% | 1021.8 hPa | 0 mm | - | 287 W/m² | - |
| 1777655225 | 14.44° C | 63% | 1022 hPa | 0 mm | - | 162 W/m² | - |
| 1777654922 | 13.89° C | 61% | 1022 hPa | 0 mm | - | 168 W/m² | - |
| 1777654620 | 13.89° C | 60% | 1021.9 hPa | 0 mm | - | 447 W/m² | - |
| 1777654317 | 13.33° C | 67% | 1022 hPa | 0 mm | - | 383 W/m² | - |
* Rain latest hour (hover to see other rain measurements)
** Current wind speed in m/s (hover to see current wind gust speed)